Time;durP1;ratioP1;P1;durP2;ratioP2;P2;SDS_P1;SDS_P2;PMS_P1;PMS_P2;Temp;Humidity;BMP_temperature;BMP_pressure;BME280_temperature;BME280_humidity;BME280_pressure;Samples;Min_cycle;Max_cycle;Signal;HPM_P1;HPM_P2
2023/08/03 00:00:50;;;;;;;3.50;2.00;;;;;;;20.60;56.17;98637.16;131050;1254;107581;-81
2023/08/03 00:04:09;;;;;;;5.30;1.90;;;;;;;20.60;56.28;98624.31;131039;1253;107536;-80
2023/08/03 00:07:15;;;;;;;4.30;1.90;;;;;;;20.61;56.18;98625.50;131019;1265;107518;-80
2023/08/03 00:10:21;;;;;;;3.30;1.80;;;;;;;20.61;56.21;98628.05;131031;1254;108117;-80
2023/08/03 00:13:27;;;;;;;5.10;2.00;;;;;;;20.59;56.23;98628.80;130970;1265;106022;-80
2023/08/03 00:16:33;;;;;;;3.00;1.70;;;;;;;20.58;56.12;98610.17;131027;1250;107409;-80
2023/08/03 00:19:38;;;;;;;2.80;2.00;;;;;;;20.56;56.16;98620.89;131035;1250;107462;-80
2023/08/03 00:22:46;;;;;;;3.80;1.80;;;;;;;20.53;56.24;98625.20;131025;1254;107500;-80
2023/08/03 00:25:51;;;;;;;3.00;1.90;;;;;;;20.50;56.27;98630.39;131155;1249;107214;-80
2023/08/03 00:28:57;;;;;;;3.20;2.20;;;;;;;20.47;56.31;98626.18;131105;1254;107569;-80
2023/08/03 00:32:02;;;;;;;2.50;1.80;;;;;;;20.46;56.36;98622.26;131039;1251;107556;-80
2023/08/03 00:35:09;;;;;;;9.00;6.30;;;;;;;20.45;56.40;98621.29;131010;1254;107549;-80
2023/08/03 00:38:15;;;;;;;3.10;2.40;;;;;;;20.45;56.40;98620.36;131137;1254;107561;-80
2023/08/03 00:41:20;;;;;;;2.60;1.90;;;;;;;20.45;56.38;98619.73;131144;1250;107565;-80
2023/08/03 00:44:26;;;;;;;2.60;1.90;;;;;;;20.45;56.53;98616.83;131130;1254;107645;-80
2023/08/03 00:47:31;;;;;;;2.20;1.70;;;;;;;20.45;56.46;98611.26;131136;1254;107538;-80
2023/08/03 00:50:37;;;;;;;3.30;2.20;;;;;;;20.44;56.44;98604.91;130878;1255;165257;-80
2023/08/03 00:53:45;;;;;;;4.00;1.70;;;;;;;20.42;56.54;98603.33;131012;1254;107570;-80
2023/08/03 00:56:51;;;;;;;6.60;2.00;;;;;;;20.41;56.65;98595.67;131067;1250;107338;-80
2023/08/03 00:59:57;;;;;;;1.90;1.70;;;;;;;20.40;56.74;98604.89;131051;1255;107645;-80
2023/08/03 01:03:02;;;;;;;3.40;1.80;;;;;;;20.39;56.79;98596.96;131067;1251;108687;-80
2023/08/03 01:06:08;;;;;;;2.10;1.80;;;;;;;20.38;56.87;98587.48;131109;1257;108345;-80
2023/08/03 01:09:14;;;;;;;3.10;1.80;;;;;;;20.37;56.95;98582.42;131014;1254;107363;-80
2023/08/03 01:12:19;;;;;;;2.30;1.90;;;;;;;20.37;57.06;98584.70;131101;1254;107512;-80
2023/08/03 01:15:25;;;;;;;3.50;2.00;;;;;;;20.36;57.17;98579.64;131123;1253;107274;-80
2023/08/03 01:18:31;;;;;;;2.60;1.70;;;;;;;20.35;57.20;98561.17;131076;1254;107420;-80
2023/08/03 01:21:38;;;;;;;9.20;2.10;;;;;;;20.34;57.26;98553.95;131076;1255;107660;-80
2023/08/03 01:24:44;;;;;;;3.60;1.90;;;;;;;20.33;57.31;98553.15;131166;1251;107482;-80
2023/08/03 01:27:49;;;;;;;5.40;1.80;;;;;;;20.33;57.37;98535.00;131021;1251;108856;-80
2023/08/03 01:30:56;;;;;;;3.60;1.80;;;;;;;20.33;57.53;98525.45;131110;1255;107516;-80
2023/08/03 01:34:02;;;;;;;3.50;1.80;;;;;;;20.32;57.66;98545.23;131102;1253;107412;-80
2023/08/03 01:37:09;;;;;;;3.20;1.90;;;;;;;20.31;57.86;98535.24;131105;1257;107177;-80
2023/08/03 01:40:15;;;;;;;2.50;1.90;;;;;;;20.30;58.16;98536.38;131103;1251;107411;-80
2023/08/03 01:43:21;;;;;;;3.00;1.90;;;;;;;20.27;58.41;98542.04;131058;1252;106041;-80
2023/08/03 01:46:27;;;;;;;4.10;1.90;;;;;;;20.24;58.78;98561.67;131074;1250;108559;-80
2023/08/03 01:49:34;;;;;;;2.50;1.90;;;;;;;20.19;58.92;98596.90;131132;1256;107514;-80
2023/08/03 01:52:40;;;;;;;3.20;1.70;;;;;;;20.16;59.10;98593.45;131139;1255;107479;-80
2023/08/03 01:55:46;;;;;;;3.30;2.00;;;;;;;20.13;59.33;98562.34;131162;1254;108657;-80
2023/08/03 01:58:52;;;;;;;2.60;2.00;;;;;;;20.10;59.42;98559.11;130984;1251;107613;-80
2023/08/03 02:01:57;;;;;;;2.20;1.80;;;;;;;20.06;59.53;98571.76;131067;1257;107272;-80
2023/08/03 02:05:03;;;;;;;3.10;1.90;;;;;;;20.04;59.60;98572.91;131036;1254;107498;-80
2023/08/03 02:08:09;;;;;;;2.60;1.80;;;;;;;20.00;59.69;98570.02;131160;1250;107360;-80
2023/08/03 02:11:16;;;;;;;2.10;1.80;;;;;;;19.99;59.81;98566.86;131082;1249;108543;-80
2023/08/03 02:14:22;;;;;;;2.70;1.80;;;;;;;19.96;60.08;98573.77;131166;1251;107559;-80
2023/08/03 02:17:29;;;;;;;3.00;1.80;;;;;;;19.94;60.11;98581.16;130996;1255;107239;-80
2023/08/03 02:20:34;;;;;;;3.80;1.70;;;;;;;19.93;60.19;98570.75;131078;1250;107454;-80
2023/08/03 02:23:40;;;;;;;3.10;1.90;;;;;;;19.92;60.18;98556.25;131089;1250;107454;-80
2023/08/03 02:26:45;;;;;;;2.70;1.90;;;;;;;19.90;60.41;98557.09;131106;1257;107968;-80
2023/08/03 02:29:51;;;;;;;3.60;2.00;;;;;;;19.89;60.53;98546.27;131136;1256;107624;-79
2023/08/03 02:32:57;;;;;;;2.40;1.70;;;;;;;19.87;60.71;98544.23;131065;1250;107348;-80
2023/08/03 02:36:03;;;;;;;2.00;1.80;;;;;;;19.86;61.00;98577.63;131170;1251;107336;-83
2023/08/03 02:39:09;;;;;;;2.90;1.80;;;;;;;19.86;61.22;98633.81;131068;1252;107582;-80
2023/08/03 02:42:15;;;;;;;3.00;1.70;;;;;;;19.85;61.68;98622.91;131067;1255;108604;-79
2023/08/03 02:45:21;;;;;;;2.10;1.70;;;;;;;19.85;61.63;98629.41;131028;1254;107351;-79
2023/08/03 02:48:27;;;;;;;2.50;1.60;;;;;;;19.86;61.80;98628.14;131586;1253;106438;-79
2023/08/03 02:51:34;;;;;;;3.30;2.10;;;;;;;19.91;62.14;98589.58;131168;1252;107356;-79
2023/08/03 02:54:40;;;;;;;3.00;1.70;;;;;;;19.98;62.45;98578.93;130926;1255;107540;-79
2023/08/03 02:57:46;;;;;;;1.80;1.60;;;;;;;20.04;62.51;98584.46;130943;1252;107455;-79
2023/08/03 03:00:52;;;;;;;2.80;1.70;;;;;;;20.08;62.64;98568.58;130945;1252;107407;-80
2023/08/03 03:04:00;;;;;;;2.40;1.60;;;;;;;20.11;62.78;98537.20;130907;1255;107489;-79
2023/08/03 03:07:08;;;;;;;2.00;1.50;;;;;;;20.13;62.87;98482.19;130975;1257;107549;-79
2023/08/03 03:10:14;;;;;;;2.00;1.60;;;;;;;20.13;63.06;98458.08;130915;1253;107302;-79
2023/08/03 03:13:20;;;;;;;3.20;1.50;;;;;;;20.14;63.44;98412.23;130980;1255;107426;-78
2023/08/03 03:16:26;;;;;;;3.20;1.80;;;;;;;20.12;63.66;98413.84;130960;1253;107531;-79
2023/08/03 03:19:32;;;;;;;4.00;1.90;;;;;;;20.07;63.86;98473.20;131071;1254;107507;-78
2023/08/03 03:22:39;;;;;;;2.20;1.60;;;;;;;20.03;64.59;98487.25;131010;1255;107424;-78
2023/08/03 03:25:44;;;;;;;2.30;1.50;;;;;;;19.99;64.58;98516.63;130895;1255;107639;-78
2023/08/03 03:28:51;;;;;;;4.10;1.80;;;;;;;20.00;64.29;98535.63;131001;1255;107517;-79
2023/08/03 03:31:57;;;;;;;2.00;1.50;;;;;;;20.04;64.44;98536.38;130961;1250;107441;-78
2023/08/03 03:35:04;;;;;;;2.40;1.30;;;;;;;20.09;64.52;98544.38;130953;1255;107544;-79
2023/08/03 03:38:09;;;;;;;2.20;1.70;;;;;;;20.13;64.70;98552.86;130950;1250;107512;-78
2023/08/03 03:41:15;;;;;;;4.00;1.80;;;;;;;20.16;64.63;98556.95;130874;1256;107534;-78
2023/08/03 03:44:21;;;;;;;3.00;1.60;;;;;;;20.18;64.75;98574.73;130960;1254;107522;-78
2023/08/03 03:47:27;;;;;;;3.00;1.60;;;;;;;20.19;64.72;98585.14;130911;1255;107532;-78
2023/08/03 03:50:34;;;;;;;2.70;2.00;;;;;;;20.23;64.97;98595.14;130956;1249;107600;-79
2023/08/03 03:53:40;;;;;;;2.20;1.90;;;;;;;20.24;64.90;98590.48;130962;1250;107612;-78
2023/08/03 03:56:48;;;;;;;2.50;1.70;;;;;;;20.24;64.97;98595.48;130947;1255;107571;-78
2023/08/03 03:59:54;;;;;;;1.80;1.50;;;;;;;20.25;65.12;98596.30;130959;1255;106457;-78
2023/08/03 04:03:00;;;;;;;2.80;1.60;;;;;;;20.24;65.30;98603.05;130976;1255;107629;-79
2023/08/03 04:06:05;;;;;;;1.70;1.40;;;;;;;20.25;65.60;98607.51;130918;1255;107554;-78
2023/08/03 04:09:11;;;;;;;1.80;1.50;;;;;;;20.28;65.64;98612.02;130940;1249;107235;-78
2023/08/03 04:12:17;;;;;;;2.60;1.90;;;;;;;20.34;65.74;98610.70;130954;1255;107538;-78
2023/08/03 04:15:22;;;;;;;3.80;1.80;;;;;;;20.44;65.78;98612.77;130886;1253;107559;-78
2023/08/03 04:18:28;;;;;;;2.10;1.60;;;;;;;20.53;65.80;98611.88;130831;1255;107705;-78
2023/08/03 04:21:34;;;;;;;2.50;1.60;;;;;;;20.61;65.90;98618.73;130955;1262;107658;-79
2023/08/03 04:24:39;;;;;;;2.20;1.70;;;;;;;20.65;66.01;98614.27;130964;1255;107536;-78
2023/08/03 04:27:46;;;;;;;3.00;1.60;;;;;;;20.67;66.02;98618.96;130966;1253;106444;-78
2023/08/03 04:30:54;;;;;;;3.20;1.70;;;;;;;20.72;66.06;98638.18;131146;1255;107441;-79
2023/08/03 04:33:59;;;;;;;2.90;1.50;;;;;;;20.80;66.14;98635.86;130877;1255;107522;-79
2023/08/03 04:37:07;;;;;;;2.30;1.60;;;;;;;20.88;66.24;98647.89;130894;1255;107431;-78
2023/08/03 04:40:14;;;;;;;3.40;1.50;;;;;;;20.93;66.28;98656.17;130926;1255;107545;-79
2023/08/03 04:43:19;;;;;;;2.00;1.40;;;;;;;20.99;66.39;98635.29;130935;1255;107475;-78
2023/08/03 04:46:25;;;;;;;2.80;1.80;;;;;;;21.06;66.39;98637.88;130989;1250;107221;-78
2023/08/03 04:49:33;;;;;;;1.80;1.60;;;;;;;21.12;66.31;98654.14;130901;1257;107536;-78
2023/08/03 04:52:39;;;;;;;2.40;1.90;;;;;;;21.19;66.26;98663.63;130987;1255;107489;-79
2023/08/03 04:55:45;;;;;;;2.90;2.10;;;;;;;21.22;66.34;98650.88;130974;1255;107454;-79
2023/08/03 04:58:50;;;;;;;3.60;2.60;;;;;;;21.23;66.38;98658.09;130939;1258;106669;-79
2023/08/03 05:01:57;;;;;;;4.10;2.40;;;;;;;21.21;66.43;98654.13;131139;1253;106578;-79
2023/08/03 05:05:04;;;;;;;3.00;2.20;;;;;;;21.18;66.48;98670.12;131691;1255;109643;-78
2023/08/03 05:08:09;;;;;;;2.70;2.30;;;;;;;21.14;66.55;98674.48;130974;1255;106685;-78
2023/08/03 05:11:15;;;;;;;2.10;1.60;;;;;;;21.12;66.57;98649.90;130960;1255;107517;-78
2023/08/03 05:14:20;;;;;;;2.70;1.70;;;;;;;21.11;66.78;98636.55;130886;1249;107388;-78
2023/08/03 05:17:26;;;;;;;4.10;1.90;;;;;;;21.10;66.75;98628.46;130836;1257;108695;-77
2023/08/03 05:20:31;;;;;;;2.90;2.10;;;;;;;21.14;66.94;98627.89;130972;1254;107558;-77
2023/08/03 05:23:37;;;;;;;2.60;1.40;;;;;;;21.21;66.97;98652.28;130904;1255;107423;-78
2023/08/03 05:26:42;;;;;;;3.30;1.80;;;;;;;21.32;66.99;98673.62;130931;1255;107554;-78
2023/08/03 05:29:48;;;;;;;2.00;1.60;;;;;;;21.49;67.10;98654.85;131008;1250;107378;-77
2023/08/03 05:32:57;;;;;;;2.00;1.60;;;;;;;21.66;66.93;98625.52;131045;1266;107287;-81
2023/08/03 05:36:03;;;;;;;3.80;1.80;;;;;;;21.83;67.07;98661.90;131174;1254;107532;-81
2023/08/03 05:39:12;;;;;;;4.10;1.70;;;;;;;22.01;66.92;98675.33;131061;1253;107424;-81
2023/08/03 05:42:19;;;;;;;2.30;1.90;;;;;;;22.19;66.85;98668.38;131119;1256;107306;-79
2023/08/03 05:45:41;;;;;;;2.00;1.60;;;;;;;22.45;66.70;98692.04;131162;1253;107505;-79
2023/08/03 05:48:51;;;;;;;1.90;1.60;;;;;;;22.69;66.44;98705.01;131112;1255;107531;-81
2023/08/03 05:51:57;;;;;;;2.40;1.80;;;;;;;22.76;66.33;98709.69;131144;1250;107463;-79
2023/08/03 05:55:03;;;;;;;2.20;1.40;;;;;;;22.81;66.16;98728.40;131213;1249;107550;-73
2023/08/03 05:58:12;;;;;;;2.10;1.40;;;;;;;22.92;65.69;98731.83;130925;1255;107551;-73
2023/08/03 06:01:20;;;;;;;2.60;1.60;;;;;;;23.03;65.52;98742.67;131029;1255;107516;-73
2023/08/03 06:04:27;;;;;;;2.70;2.10;;;;;;;23.07;65.37;98746.01;131005;1254;106904;-73
2023/08/03 06:07:32;;;;;;;5.10;2.20;;;;;;;23.10;65.28;98725.33;130991;1255;106676;-73
2023/08/03 06:10:38;;;;;;;3.60;2.00;;;;;;;23.12;65.23;98675.92;130965;1250;107536;-73
2023/08/03 06:13:44;;;;;;;2.20;1.80;;;;;;;23.10;65.45;98703.03;130959;1253;107282;-73
2023/08/03 06:16:50;;;;;;;2.30;1.80;;;;;;;23.10;65.30;98735.89;131126;1258;107359;-74
2023/08/03 06:19:56;;;;;;;2.90;1.80;;;;;;;23.09;65.30;98726.86;130936;1255;107510;-74
2023/08/03 06:23:04;;;;;;;2.00;1.80;;;;;;;23.11;65.30;98718.15;131013;1253;107345;-73
2023/08/03 06:26:13;;;;;;;2.40;1.80;;;;;;;23.11;65.26;98704.66;130931;1254;107549;-73
2023/08/03 06:29:20;;;;;;;2.50;1.80;;;;;;;23.14;65.15;98687.14;130970;1255;107649;-74
2023/08/03 06:32:30;;;;;;;3.40;1.90;;;;;;;23.14;65.02;98616.39;130993;1255;108635;-74
2023/08/03 06:35:40;;;;;;;2.20;1.90;;;;;;;23.18;64.81;98583.68;131020;1255;107529;-73
2023/08/03 06:38:47;;;;;;;4.10;1.80;;;;;;;23.20;64.99;98704.81;131049;1254;107203;-73
2023/08/03 06:41:53;;;;;;;2.60;1.80;;;;;;;23.20;64.78;98731.96;130965;1250;107382;-73
2023/08/03 06:45:01;;;;;;;1.60;1.50;;;;;;;23.27;64.69;98752.04;131006;1254;107412;-73
2023/08/03 06:48:08;;;;;;;4.70;1.60;;;;;;;23.36;64.70;98758.84;130944;1255;107531;-73
2023/08/03 06:51:13;;;;;;;4.60;1.50;;;;;;;23.47;64.60;98745.16;130944;1257;107375;-73
2023/08/03 06:54:19;;;;;;;1.60;1.30;;;;;;;23.57;64.40;98732.02;130921;1254;107668;-73
2023/08/03 06:57:24;;;;;;;2.60;1.60;;;;;;;23.60;64.27;98710.77;130986;1255;107471;-73
2023/08/03 07:00:30;;;;;;;1.80;1.50;;;;;;;23.56;64.07;98701.52;131046;1255;107537;-73
2023/08/03 07:03:36;;;;;;;2.60;1.80;;;;;;;23.48;64.27;98683.74;130920;1254;107421;-73
2023/08/03 07:06:41;;;;;;;1.90;1.40;;;;;;;23.40;64.00;98764.66;131011;1250;107360;-73
2023/08/03 07:09:49;;;;;;;2.80;1.30;;;;;;;23.38;63.90;98789.11;131006;1256;107520;-73
2023/08/03 07:12:55;;;;;;;3.10;1.70;;;;;;;23.42;63.98;98769.52;131153;1255;107614;-74
2023/08/03 07:16:08;;;;;;;1.90;1.30;;;;;;;23.46;63.79;98783.38;131288;1253;107513;-74
2023/08/03 07:19:16;;;;;;;2.10;1.60;;;;;;;23.41;63.63;98759.38;130984;1252;107560;-74
2023/08/03 07:22:22;;;;;;;3.30;1.40;;;;;;;23.34;63.58;98754.86;131015;1256;108951;-73
2023/08/03 07:25:27;;;;;;;1.90;1.60;;;;;;;23.28;63.71;98754.00;131005;1255;107417;-73
2023/08/03 07:28:33;;;;;;;2.00;1.40;;;;;;;23.24;63.59;98736.04;130983;1256;107574;-74
2023/08/03 07:31:38;;;;;;;3.90;1.60;;;;;;;23.19;63.81;98709.38;131029;1255;107541;-74
2023/08/03 07:34:44;;;;;;;2.40;1.50;;;;;;;23.12;64.15;98718.52;130979;1255;107588;-73
2023/08/03 07:37:50;;;;;;;2.00;1.60;;;;;;;23.06;64.00;98731.59;131064;1254;107521;-74
2023/08/03 07:40:56;;;;;;;3.00;1.40;;;;;;;23.00;64.19;98748.42;131280;1252;107553;-74
2023/08/03 07:44:02;;;;;;;2.10;1.30;;;;;;;22.93;64.27;98777.52;131123;1255;107569;-74
2023/08/03 07:47:08;;;;;;;2.30;1.60;;;;;;;22.85;64.41;98796.66;131087;1255;106058;-75
2023/08/03 07:50:14;;;;;;;2.30;1.40;;;;;;;22.73;64.33;98808.66;131155;1253;107569;-73
2023/08/03 07:53:19;;;;;;;1.50;1.20;;;;;;;22.66;64.72;98758.23;131202;1255;107382;-74
2023/08/03 07:56:25;;;;;;;4.40;1.90;;;;;;;22.62;64.75;98806.73;131042;1251;107452;-70
2023/08/03 07:59:31;;;;;;;2.80;1.40;;;;;;;22.63;64.90;98807.87;130968;1256;107327;-73
2023/08/03 08:02:36;;;;;;;3.70;1.20;;;;;;;22.59;65.53;98783.66;131012;1255;107969;-72
2023/08/03 08:05:42;;;;;;;3.60;1.50;;;;;;;22.52;66.00;98830.03;130969;1255;106723;-73
2023/08/03 08:08:50;;;;;;;2.00;1.60;;;;;;;22.44;66.18;98851.98;131025;1251;107505;-72
2023/08/03 08:11:55;;;;;;;4.60;1.50;;;;;;;22.39;66.09;98845.95;130947;1255;107193;-71
2023/08/03 08:15:01;;;;;;;1.80;1.50;;;;;;;22.40;66.08;98837.42;130962;1255;107534;-72
2023/08/03 08:18:06;;;;;;;4.10;1.60;;;;;;;22.36;66.45;98848.39;130993;1255;107396;-72
2023/08/03 08:21:13;;;;;;;1.80;1.50;;;;;;;22.31;66.32;98838.41;130936;1255;107530;-71
2023/08/03 08:24:19;;;;;;;1.80;1.40;;;;;;;22.26;66.40;98845.94;130985;1255;108024;-72
2023/08/03 08:27:24;;;;;;;2.60;1.40;;;;;;;22.18;66.57;98885.33;130911;1254;107437;-72
2023/08/03 08:30:30;;;;;;;1.90;1.50;;;;;;;22.14;66.69;98875.95;131076;1255;106734;-72
2023/08/03 08:33:36;;;;;;;2.60;1.40;;;;;;;22.14;66.77;98859.34;131049;1255;107430;-72
2023/08/03 08:36:41;;;;;;;1.70;1.50;;;;;;;22.11;66.91;98845.63;130899;1251;107610;-72
2023/08/03 08:39:47;;;;;;;1.80;1.40;;;;;;;22.06;66.98;98824.30;130909;1253;107472;-72
2023/08/03 08:42:55;;;;;;;2.20;1.20;;;;;;;22.04;66.95;98823.98;130864;1255;107541;-72
2023/08/03 08:46:01;;;;;;;1.60;1.40;;;;;;;22.03;66.91;98848.02;130951;1256;107505;-72
2023/08/03 08:49:06;;;;;;;2.90;1.40;;;;;;;22.05;67.00;98877.86;130984;1255;107546;-73
2023/08/03 08:52:12;;;;;;;2.10;1.50;;;;;;;22.06;66.86;98882.76;130897;1256;107369;-72
2023/08/03 08:55:20;;;;;;;1.80;1.50;;;;;;;22.09;66.87;98867.40;130860;1255;107378;-71
2023/08/03 08:58:27;;;;;;;1.80;1.30;;;;;;;22.12;66.64;98796.77;130939;1266;107566;-72
2023/08/03 09:01:49;;;;;;;2.00;1.20;;;;;;;22.13;66.62;98815.59;130974;1255;105651;-73
2023/08/03 09:04:55;;;;;;;2.60;1.40;;;;;;;22.18;66.68;98803.27;130983;1256;106730;-74
2023/08/03 09:08:05;;;;;;;2.40;1.30;;;;;;;22.14;66.62;98854.71;131003;1256;108111;-74
2023/08/03 09:11:10;;;;;;;2.10;1.30;;;;;;;22.12;66.45;98838.36;130959;1263;108123;-73
2023/08/03 09:14:16;;;;;;;2.10;1.30;;;;;;;22.17;66.29;98840.38;131015;1256;107481;-74
2023/08/03 09:17:23;;;;;;;1.50;1.20;;;;;;;22.26;66.07;98848.27;130998;1254;106993;-74
2023/08/03 09:20:28;;;;;;;2.10;1.40;;;;;;;22.28;65.99;98788.80;130933;1250;107447;-74
2023/08/03 09:23:34;;;;;;;2.20;1.20;;;;;;;22.21;65.68;98738.79;130957;1254;107542;-72
2023/08/03 09:26:43;;;;;;;2.30;1.20;;;;;;;22.16;65.90;98783.48;130933;1256;107478;-72
2023/08/03 09:29:48;;;;;;;1.80;1.50;;;;;;;22.10;65.94;98843.66;130938;1268;107531;-72
2023/08/03 09:32:54;;;;;;;2.00;1.30;;;;;;;22.08;65.80;98893.73;130962;1254;107522;-72
2023/08/03 09:36:10;;;;;;;4.00;1.30;;;;;;;22.06;65.73;98914.70;130901;1255;105965;-73
2023/08/03 09:39:16;;;;;;;1.40;1.10;;;;;;;22.02;65.30;98929.71;130999;1266;107233;-72
2023/08/03 09:42:23;;;;;;;2.60;1.20;;;;;;;21.98;65.22;98906.33;130929;1256;106962;-72
2023/08/03 09:45:33;;;;;;;2.00;1.10;;;;;;;21.92;65.04;98897.98;130929;1267;107225;-72
2023/08/03 09:48:38;;;;;;;1.40;1.00;;;;;;;21.90;64.86;98832.91;131005;1262;107633;-73
2023/08/03 09:51:48;;;;;;;2.40;1.10;;;;;;;21.92;65.17;98888.42;130945;1255;108675;-72
2023/08/03 09:54:59;;;;;;;1.90;1.10;;;;;;;21.91;65.23;98904.27;131021;1264;105613;-72
2023/08/03 09:58:09;;;;;;;1.60;1.20;;;;;;;21.87;65.20;98922.00;130950;1257;107387;-72
2023/08/03 10:01:18;;;;;;;2.40;1.30;;;;;;;21.92;65.63;98932.96;131026;1254;105658;-72
2023/08/03 10:04:25;;;;;;;2.20;1.20;;;;;;;21.99;65.49;98909.48;130960;1251;107278;-73
2023/08/03 10:07:39;;;;;;;1.70;1.20;;;;;;;22.07;65.76;98954.68;130952;1265;107537;-73
2023/08/03 10:10:49;;;;;;;1.60;1.20;;;;;;;22.11;65.60;98897.08;130941;1263;107510;-72
2023/08/03 10:13:55;;;;;;;1.70;1.10;;;;;;;22.11;65.63;98881.31;130990;1262;108659;-72
2023/08/03 10:17:04;;;;;;;1.60;1.20;;;;;;;22.10;65.77;98842.25;131008;1256;106741;-72
2023/08/03 10:20:13;;;;;;;1.70;1.40;;;;;;;22.06;65.95;98706.30;130903;1255;107583;-73
2023/08/03 10:23:19;;;;;;;3.20;1.70;;;;;;;21.99;66.34;98806.98;130969;1253;107400;-72
2023/08/03 10:26:25;;;;;;;1.50;1.30;;;;;;;22.08;66.46;98842.12;130946;1251;107349;-72
2023/08/03 10:29:59;;;;;;;1.70;1.20;;;;;;;22.21;66.49;98838.23;130895;1262;106466;-72
2023/08/03 10:33:05;;;;;;;1.60;1.30;;;;;;;22.30;66.44;98837.66;130516;1268;106575;-73
2023/08/03 10:36:10;;;;;;;2.10;1.60;;;;;;;22.32;66.36;98773.80;130892;1254;107548;-72
2023/08/03 10:39:18;;;;;;;3.50;1.60;;;;;;;22.21;66.74;98876.88;130915;1254;107161;-72
2023/08/03 10:42:26;;;;;;;3.20;1.50;;;;;;;22.15;66.87;98867.70;130965;1253;106781;-72
2023/08/03 10:45:32;;;;;;;3.30;1.50;;;;;;;22.08;67.10;98877.44;131001;1257;106539;-73
2023/08/03 10:48:40;;;;;;;3.40;1.60;;;;;;;22.02;67.33;98813.09;130982;1263;107517;-72
2023/08/03 10:51:46;;;;;;;2.50;1.50;;;;;;;21.94;67.70;98873.55;130932;1254;106761;-73
2023/08/03 10:54:52;;;;;;;2.10;1.40;;;;;;;21.93;68.08;98930.24;130917;1251;108334;-73
2023/08/03 10:57:58;;;;;;;1.80;1.40;;;;;;;21.90;68.26;98942.94;130945;1251;107359;-73
2023/08/03 11:01:05;;;;;;;2.10;1.50;;;;;;;21.88;68.50;98954.43;131000;1251;107355;-73
2023/08/03 11:04:11;;;;;;;2.00;1.60;;;;;;;21.87;68.77;98958.93;130993;1253;107543;-73
2023/08/03 11:07:21;;;;;;;2.60;1.40;;;;;;;21.84;68.81;98978.73;130903;1261;107265;-73
2023/08/03 11:10:27;;;;;;;2.60;1.60;;;;;;;21.79;69.05;98968.59;130954;1257;107488;-73
2023/08/03 11:13:33;;;;;;;3.60;1.80;;;;;;;21.72;69.03;98954.15;131003;1254;107468;-72
2023/08/03 11:16:39;;;;;;;3.30;1.60;;;;;;;21.66;69.22;98920.31;130990;1255;107421;-73
2023/08/03 11:19:45;;;;;;;3.70;1.50;;;;;;;21.65;69.37;98903.69;130876;1251;107419;-73
2023/08/03 11:22:50;;;;;;;2.30;1.50;;;;;;;21.64;69.48;98897.33;130955;1253;107440;-73
2023/08/03 11:25:57;;;;;;;3.00;1.80;;;;;;;21.67;69.59;98893.98;130965;1263;107498;-73
2023/08/03 11:29:06;;;;;;;4.70;2.20;;;;;;;21.74;69.62;98901.05;130981;1255;107502;-73
2023/08/03 11:32:13;;;;;;;3.60;1.70;;;;;;;21.83;69.67;98916.42;131138;1255;107113;-73
2023/08/03 11:35:19;;;;;;;2.40;1.60;;;;;;;21.96;69.62;98923.70;131265;1255;107556;-73
2023/08/03 11:38:24;;;;;;;3.40;2.00;;;;;;;22.10;69.73;98893.27;131038;1257;107423;-73
2023/08/03 11:41:30;;;;;;;2.30;1.70;;;;;;;22.22;69.62;98899.23;131025;1266;107254;-73
2023/08/03 11:44:40;;;;;;;3.20;2.00;;;;;;;22.31;69.72;98884.89;131054;1253;107578;-73
2023/08/03 11:47:46;;;;;;;2.30;1.80;;;;;;;22.33;69.84;98871.85;131002;1256;106707;-73
2023/08/03 11:50:52;;;;;;;1.90;1.60;;;;;;;22.38;70.01;98886.33;130998;1255;107420;-73
2023/08/03 11:54:01;;;;;;;3.00;2.10;;;;;;;22.44;69.96;98922.72;131016;1255;107520;-72
2023/08/03 12:00:33;;;;;;;3.30;2.00;;;;;;;22.60;69.87;98914.27;130996;1254;107543;-72
2023/08/03 12:03:40;;;;;;;3.30;1.90;;;;;;;22.56;69.85;98911.20;131084;1254;107364;-73
2023/08/03 12:06:48;;;;;;;4.80;2.10;;;;;;;22.53;69.87;98879.98;131092;1252;107488;-73
2023/08/03 12:09:53;;;;;;;3.20;2.00;;;;;;;22.47;69.74;98881.75;131037;1255;105893;-74
2023/08/03 12:12:59;;;;;;;3.00;2.20;;;;;;;22.41;69.89;98887.22;131079;1251;107412;-74
2023/08/03 12:16:05;;;;;;;2.50;1.80;;;;;;;22.33;69.75;98890.54;130998;1256;107594;-73
2023/08/03 12:19:11;;;;;;;3.20;1.80;;;;;;;22.25;69.68;98876.08;130982;1254;107255;-73
2023/08/03 12:22:16;;;;;;;3.30;1.60;;;;;;;22.23;69.66;98841.94;131019;1266;107450;-73
2023/08/03 12:25:22;;;;;;;3.00;1.80;;;;;;;22.28;69.80;98873.61;131012;1251;107539;-74
2023/08/03 12:28:28;;;;;;;2.80;1.60;;;;;;;22.48;69.71;98896.92;131088;1251;107287;-73
2023/08/03 12:31:34;;;;;;;2.70;1.60;;;;;;;22.78;69.34;98874.98;131003;1256;107411;-73
2023/08/03 12:34:40;;;;;;;2.80;1.50;;;;;;;23.08;68.98;98877.68;131092;1251;107339;-74
2023/08/03 12:37:47;;;;;;;2.00;1.50;;;;;;;23.29;68.28;98877.29;131029;1257;107513;-72
2023/08/03 12:40:53;;;;;;;3.50;1.70;;;;;;;23.41;67.70;98888.08;130947;1254;107605;-75
2023/08/03 12:43:58;;;;;;;2.90;1.50;;;;;;;23.49;67.37;98889.82;131108;1256;107924;-73
2023/08/03 12:47:04;;;;;;;2.00;1.40;;;;;;;23.58;66.36;98892.07;131079;1254;108517;-71
2023/08/03 12:50:11;;;;;;;2.40;1.10;;;;;;;23.62;66.43;98882.31;130939;1251;129093;-72
2023/08/03 12:53:19;;;;;;;2.20;1.40;;;;;;;23.67;65.81;98885.75;131015;1256;107390;-72
2023/08/03 12:56:25;;;;;;;2.70;1.70;;;;;;;23.69;65.03;98883.83;131029;1257;107537;-73
2023/08/03 12:59:31;;;;;;;3.00;1.60;;;;;;;23.75;64.65;98896.48;131062;1255;107560;-73
2023/08/03 13:03:20;;;;;;;4.00;1.60;;;;;;;23.94;64.45;98909.94;130993;1251;107491;-72
2023/08/03 13:06:44;;;;;;;2.60;1.30;;;;;;;24.11;64.33;98891.27;131019;1251;108991;-73
2023/08/03 13:09:49;;;;;;;2.70;1.30;;;;;;;24.16;63.19;98902.39;131086;1255;108615;-73
2023/08/03 13:12:55;;;;;;;2.40;1.30;;;;;;;24.18;62.75;98906.54;130958;1258;107556;-76
2023/08/03 13:16:00;;;;;;;3.30;1.20;;;;;;;24.14;62.01;98898.52;131095;1251;107459;-73
2023/08/03 13:19:05;;;;;;;2.20;1.20;;;;;;;24.09;62.06;98892.05;131079;1251;107527;-73
2023/08/03 13:22:11;;;;;;;2.40;1.10;;;;;;;24.08;62.15;98893.90;131046;1264;107521;-73
2023/08/03 13:25:16;;;;;;;3.30;1.30;;;;;;;24.13;62.23;98893.30;130963;1251;107549;-72
2023/08/03 13:28:21;;;;;;;2.70;1.20;;;;;;;24.23;61.90;98888.75;130944;1256;107484;-73
2023/08/03 13:31:27;;;;;;;2.30;1.30;;;;;;;24.29;61.57;98901.70;131048;1256;107549;-73
2023/08/03 13:34:32;;;;;;;2.70;1.20;;;;;;;24.28;61.34;98896.41;130958;1254;107508;-73
2023/08/03 13:37:38;;;;;;;2.10;1.00;;;;;;;24.26;61.13;98885.31;131006;1254;107558;-72
2023/08/03 13:40:43;;;;;;;2.80;1.10;;;;;;;24.24;61.10;98902.53;131003;1254;107369;-74
2023/08/03 13:43:49;;;;;;;2.70;1.30;;;;;;;24.33;60.86;98907.80;131144;1252;107548;-75
2023/08/03 13:46:59;;;;;;;2.30;1.30;;;;;;;24.40;60.51;98905.60;131019;1257;108513;-76
2023/08/03 13:50:05;;;;;;;2.80;1.50;;;;;;;24.48;60.41;98904.88;131040;1254;107404;-73
2023/08/03 13:53:11;;;;;;;2.90;1.30;;;;;;;24.54;60.12;98916.83;131186;1254;108620;-73
2023/08/03 13:56:16;;;;;;;2.40;1.40;;;;;;;24.57;60.25;98927.66;131081;1257;108623;-71
2023/08/03 13:59:22;;;;;;;2.40;1.30;;;;;;;24.60;60.22;98923.56;130944;1251;107275;-71
2023/08/03 14:02:27;;;;;;;1.70;1.00;;;;;;;24.74;59.32;98917.52;131099;1255;106548;-74
2023/08/03 14:05:33;;;;;;;1.40;0.90;;;;;;;24.92;59.12;98911.00;131033;1251;108649;-73
2023/08/03 14:08:39;;;;;;;1.90;1.10;;;;;;;24.98;58.05;98919.54;130970;1250;107453;-72
2023/08/03 14:11:44;;;;;;;3.60;1.10;;;;;;;24.87;57.77;98912.43;130958;1251;107370;-73
2023/08/03 14:14:50;;;;;;;1.60;0.90;;;;;;;24.74;57.87;98910.37;131022;1253;106750;-73
2023/08/03 14:17:55;;;;;;;3.70;1.30;;;;;;;24.79;57.57;98919.13;131048;1258;107356;-73
2023/08/03 14:21:01;;;;;;;1.90;1.10;;;;;;;24.81;57.44;98915.52;130985;1251;107192;-73